sensor_id;sensor_type;location;lat;lon;timestamp;temperature;humidity
32348;DHT22;18821;44.800;10.326;2023-04-21T00:01:32;12.20;99.90
32348;DHT22;18821;44.800;10.326;2023-04-21T00:03:58;12.20;99.90
32348;DHT22;18821;44.800;10.326;2023-04-21T00:06:25;12.20;99.90
32348;DHT22;18821;44.800;10.326;2023-04-21T00:08:51;12.20;99.90
32348;DHT22;18821;44.800;10.326;2023-04-21T00:11:17;12.20;99.90
32348;DHT22;18821;44.800;10.326;2023-04-21T00:13:44;12.20;99.90
32348;DHT22;18821;44.800;10.326;2023-04-21T00:16:10;12.30;99.90
32348;DHT22;18821;44.800;10.326;2023-04-21T00:18:36;12.20;99.90
32348;DHT22;18821;44.800;10.326;2023-04-21T00:21:02;12.20;99.90
32348;DHT22;18821;44.800;10.326;2023-04-21T00:23:27;12.20;99.90
32348;DHT22;18821;44.800;10.326;2023-04-21T00:25:53;12.20;99.90
32348;DHT22;18821;44.800;10.326;2023-04-21T00:28:20;12.20;99.90
32348;DHT22;18821;44.800;10.326;2023-04-21T00:30:46;12.20;99.90
32348;DHT22;18821;44.800;10.326;2023-04-21T00:33:11;12.20;99.90
32348;DHT22;18821;44.800;10.326;2023-04-21T00:35:37;12.20;99.90
32348;DHT22;18821;44.800;10.326;2023-04-21T00:38:03;12.20;99.90
32348;DHT22;18821;44.800;10.326;2023-04-21T00:40:29;12.20;99.90
32348;DHT22;18821;44.800;10.326;2023-04-21T00:42:55;12.20;99.90
32348;DHT22;18821;44.800;10.326;2023-04-21T00:45:21;12.20;99.90
32348;DHT22;18821;44.800;10.326;2023-04-21T00:47:47;12.20;99.90
32348;DHT22;18821;44.800;10.326;2023-04-21T00:50:13;12.20;99.90
32348;DHT22;18821;44.800;10.326;2023-04-21T00:52:40;12.20;99.90
32348;DHT22;18821;44.800;10.326;2023-04-21T00:55:07;12.20;99.90
32348;DHT22;18821;44.800;10.326;2023-04-21T00:57:37;12.20;99.90
32348;DHT22;18821;44.800;10.326;2023-04-21T01:00:04;12.20;99.90
32348;DHT22;18821;44.800;10.326;2023-04-21T01:02:31;12.20;99.90
32348;DHT22;18821;44.800;10.326;2023-04-21T01:04:59;12.20;99.90
32348;DHT22;18821;44.800;10.326;2023-04-21T01:07:26;12.20;99.90
32348;DHT22;18821;44.800;10.326;2023-04-21T01:09:52;12.20;99.90
32348;DHT22;18821;44.800;10.326;2023-04-21T01:12:18;12.20;99.90
32348;DHT22;18821;44.800;10.326;2023-04-21T01:14:44;12.20;99.70
32348;DHT22;18821;44.800;10.326;2023-04-21T01:17:10;12.20;99.40
32348;DHT22;18821;44.800;10.326;2023-04-21T01:19:39;12.20;99.00
32348;DHT22;18821;44.800;10.326;2023-04-21T01:22:10;12.30;98.70
32348;DHT22;18821;44.800;10.326;2023-04-21T01:24:41;12.20;98.90
32348;DHT22;18821;44.800;10.326;2023-04-21T01:27:15;12.20;99.20
32348;DHT22;18821;44.800;10.326;2023-04-21T01:29:45;12.20;99.60
32348;DHT22;18821;44.800;10.326;2023-04-21T01:32:15;12.30;99.50
32348;DHT22;18821;44.800;10.326;2023-04-21T01:34:42;12.30;99.60
32348;DHT22;18821;44.800;10.326;2023-04-21T01:37:10;12.30;98.00
32348;DHT22;18821;44.800;10.326;2023-04-21T01:39:38;12.40;97.70
32348;DHT22;18821;44.800;10.326;2023-04-21T01:42:05;12.30;97.30
32348;DHT22;18821;44.800;10.326;2023-04-21T01:44:31;12.40;97.00
32348;DHT22;18821;44.800;10.326;2023-04-21T01:46:57;12.40;96.90
32348;DHT22;18821;44.800;10.326;2023-04-21T01:49:23;12.40;96.10
32348;DHT22;18821;44.800;10.326;2023-04-21T01:51:49;12.30;95.30
32348;DHT22;18821;44.800;10.326;2023-04-21T01:54:15;12.30;95.80
32348;DHT22;18821;44.800;10.326;2023-04-21T01:56:41;12.30;96.20
32348;DHT22;18821;44.800;10.326;2023-04-21T01:59:07;12.30;97.50
32348;DHT22;18821;44.800;10.326;2023-04-21T02:01:34;12.30;96.50
32348;DHT22;18821;44.800;10.326;2023-04-21T02:04:04;12.30;96.00
32348;DHT22;18821;44.800;10.326;2023-04-21T02:06:30;12.30;96.40
32348;DHT22;18821;44.800;10.326;2023-04-21T02:08:56;12.30;96.60
32348;DHT22;18821;44.800;10.326;2023-04-21T02:11:26;12.40;96.80
32348;DHT22;18821;44.800;10.326;2023-04-21T02:13:53;12.40;95.40
32348;DHT22;18821;44.800;10.326;2023-04-21T02:16:20;12.30;94.30
32348;DHT22;18821;44.800;10.326;2023-04-21T02:18:47;12.30;94.80
32348;DHT22;18821;44.800;10.326;2023-04-21T02:21:13;12.40;95.10
32348;DHT22;18821;44.800;10.326;2023-04-21T02:23:41;12.30;93.60
32348;DHT22;18821;44.800;10.326;2023-04-21T02:26:07;12.30;93.90
32348;DHT22;18821;44.800;10.326;2023-04-21T02:28:32;12.30;95.10
32348;DHT22;18821;44.800;10.326;2023-04-21T02:30:58;12.30;94.80
32348;DHT22;18821;44.800;10.326;2023-04-21T02:33:24;12.30;94.80
32348;DHT22;18821;44.800;10.326;2023-04-21T02:35:50;12.30;94.80
32348;DHT22;18821;44.800;10.326;2023-04-21T02:38:16;12.30;95.50
32348;DHT22;18821;44.800;10.326;2023-04-21T02:40:42;12.40;95.80
32348;DHT22;18821;44.800;10.326;2023-04-21T02:43:08;12.40;94.40
32348;DHT22;18821;44.800;10.326;2023-04-21T02:45:35;12.40;92.50
32348;DHT22;18821;44.800;10.326;2023-04-21T02:48:01;12.40;92.00
32348;DHT22;18821;44.800;10.326;2023-04-21T02:50:29;12.40;92.20
32348;DHT22;18821;44.800;10.326;2023-04-21T02:52:55;12.40;92.00
32348;DHT22;18821;44.800;10.326;2023-04-21T02:55:21;12.40;92.70
32348;DHT22;18821;44.800;10.326;2023-04-21T02:57:47;12.40;91.90
32348;DHT22;18821;44.800;10.326;2023-04-21T03:00:14;12.40;92.10
32348;DHT22;18821;44.800;10.326;2023-04-21T03:02:40;12.50;91.40
32348;DHT22;18821;44.800;10.326;2023-04-21T03:05:06;12.50;90.80
32348;DHT22;18821;44.800;10.326;2023-04-21T03:07:32;12.50;90.70
32348;DHT22;18821;44.800;10.326;2023-04-21T03:09:58;12.50;91.00
32348;DHT22;18821;44.800;10.326;2023-04-21T03:12:24;12.50;90.00
32348;DHT22;18821;44.800;10.326;2023-04-21T03:14:50;12.50;90.70
32348;DHT22;18821;44.800;10.326;2023-04-21T03:17:16;12.50;90.50
32348;DHT22;18821;44.800;10.326;2023-04-21T03:19:41;12.50;89.50
32348;DHT22;18821;44.800;10.326;2023-04-21T03:22:07;12.50;90.50
32348;DHT22;18821;44.800;10.326;2023-04-21T03:24:33;12.50;90.40
32348;DHT22;18821;44.800;10.326;2023-04-21T03:26:59;12.50;90.40
32348;DHT22;18821;44.800;10.326;2023-04-21T03:29:27;12.40;91.00
32348;DHT22;18821;44.800;10.326;2023-04-21T03:31:53;12.50;91.60
32348;DHT22;18821;44.800;10.326;2023-04-21T03:34:20;12.50;89.50
32348;DHT22;18821;44.800;10.326;2023-04-21T03:36:46;12.40;89.50
32348;DHT22;18821;44.800;10.326;2023-04-21T03:39:12;12.40;90.30
32348;DHT22;18821;44.800;10.326;2023-04-21T03:41:38;12.40;90.30
32348;DHT22;18821;44.800;10.326;2023-04-21T03:44:04;12.40;90.40
32348;DHT22;18821;44.800;10.326;2023-04-21T03:46:31;12.40;91.40
32348;DHT22;18821;44.800;10.326;2023-04-21T03:48:59;12.50;92.00
32348;DHT22;18821;44.800;10.326;2023-04-21T03:51:24;12.50;92.50
32348;DHT22;18821;44.800;10.326;2023-04-21T03:53:52;12.50;92.70
32348;DHT22;18821;44.800;10.326;2023-04-21T03:56:17;12.50;93.00
32348;DHT22;18821;44.800;10.326;2023-04-21T03:58:43;12.60;92.90
32348;DHT22;18821;44.800;10.326;2023-04-21T04:01:09;12.60;92.60
32348;DHT22;18821;44.800;10.326;2023-04-21T04:03:35;12.60;91.30
32348;DHT22;18821;44.800;10.326;2023-04-21T04:06:01;12.60;91.90
32348;DHT22;18821;44.800;10.326;2023-04-21T04:08:29;12.70;91.90
32348;DHT22;18821;44.800;10.326;2023-04-21T04:10:55;12.70;92.70
32348;DHT22;18821;44.800;10.326;2023-04-21T04:13:22;12.60;92.00
32348;DHT22;18821;44.800;10.326;2023-04-21T04:15:49;12.70;91.10
32348;DHT22;18821;44.800;10.326;2023-04-21T04:18:15;12.60;90.30
32348;DHT22;18821;44.800;10.326;2023-04-21T04:20:41;12.70;90.30
32348;DHT22;18821;44.800;10.326;2023-04-21T04:23:06;12.70;89.60
32348;DHT22;18821;44.800;10.326;2023-04-21T04:25:33;12.60;87.80
32348;DHT22;18821;44.800;10.326;2023-04-21T04:27:59;12.60;88.70
32348;DHT22;18821;44.800;10.326;2023-04-21T04:30:25;12.70;88.60
32348;DHT22;18821;44.800;10.326;2023-04-21T04:32:53;12.60;87.40
32348;DHT22;18821;44.800;10.326;2023-04-21T04:35:19;12.60;85.90
32348;DHT22;18821;44.800;10.326;2023-04-21T04:37:45;12.50;87.30
32348;DHT22;18821;44.800;10.326;2023-04-21T04:40:11;12.50;86.30
32348;DHT22;18821;44.800;10.326;2023-04-21T04:42:36;12.50;89.00
32348;DHT22;18821;44.800;10.326;2023-04-21T04:45:05;12.50;90.30
32348;DHT22;18821;44.800;10.326;2023-04-21T04:47:36;12.50;90.90
32348;DHT22;18821;44.800;10.326;2023-04-21T04:50:03;12.50;90.60
32348;DHT22;18821;44.800;10.326;2023-04-21T04:52:29;12.50;91.00
32348;DHT22;18821;44.800;10.326;2023-04-21T04:54:55;12.50;90.30
32348;DHT22;18821;44.800;10.326;2023-04-21T04:57:21;12.50;90.00
32348;DHT22;18821;44.800;10.326;2023-04-21T04:59:47;12.50;90.70
32348;DHT22;18821;44.800;10.326;2023-04-21T05:02:13;12.60;90.60
32348;DHT22;18821;44.800;10.326;2023-04-21T05:04:39;12.60;90.70
32348;DHT22;18821;44.800;10.326;2023-04-21T05:07:05;12.60;90.00
32348;DHT22;18821;44.800;10.326;2023-04-21T05:09:33;12.70;89.60
32348;DHT22;18821;44.800;10.326;2023-04-21T05:11:59;12.70;84.70
32348;DHT22;18821;44.800;10.326;2023-04-21T05:14:26;12.70;83.80
32348;DHT22;18821;44.800;10.326;2023-04-21T05:16:52;12.80;82.80
32348;DHT22;18821;44.800;10.326;2023-04-21T05:19:18;12.80;80.00
32348;DHT22;18821;44.800;10.326;2023-04-21T05:21:44;12.80;79.60
32348;DHT22;18821;44.800;10.326;2023-04-21T05:24:10;12.90;81.00
32348;DHT22;18821;44.800;10.326;2023-04-21T05:26:36;12.90;80.10
32348;DHT22;18821;44.800;10.326;2023-04-21T05:29:02;13.00;79.20
32348;DHT22;18821;44.800;10.326;2023-04-21T05:31:28;13.00;76.60
32348;DHT22;18821;44.800;10.326;2023-04-21T05:33:54;13.00;70.10
32348;DHT22;18821;44.800;10.326;2023-04-21T05:36:20;12.90;70.80
32348;DHT22;18821;44.800;10.326;2023-04-21T05:38:46;12.90;74.40
32348;DHT22;18821;44.800;10.326;2023-04-21T05:41:11;13.00;74.10
32348;DHT22;18821;44.800;10.326;2023-04-21T05:43:37;13.00;72.80
32348;DHT22;18821;44.800;10.326;2023-04-21T05:46:08;13.00;71.20
32348;DHT22;18821;44.800;10.326;2023-04-21T05:48:34;13.00;70.90
32348;DHT22;18821;44.800;10.326;2023-04-21T05:51:08;13.00;72.50
32348;DHT22;18821;44.800;10.326;2023-04-21T05:53:35;13.00;72.20
32348;DHT22;18821;44.800;10.326;2023-04-21T05:56:01;13.10;70.70
32348;DHT22;18821;44.800;10.326;2023-04-21T05:58:27;13.00;66.80
32348;DHT22;18821;44.800;10.326;2023-04-21T06:00:53;13.10;68.60
32348;DHT22;18821;44.800;10.326;2023-04-21T06:03:19;13.10;66.40
32348;DHT22;18821;44.800;10.326;2023-04-21T06:05:45;13.20;68.10
32348;DHT22;18821;44.800;10.326;2023-04-21T06:08:12;13.30;67.70
32348;DHT22;18821;44.800;10.326;2023-04-21T06:10:38;13.40;63.40
32348;DHT22;18821;44.800;10.326;2023-04-21T06:13:03;13.40;59.10
32348;DHT22;18821;44.800;10.326;2023-04-21T06:15:29;13.50;59.80
32348;DHT22;18821;44.800;10.326;2023-04-21T06:17:56;13.60;57.80
32348;DHT22;18821;44.800;10.326;2023-04-21T06:20:21;13.60;55.30
32348;DHT22;18821;44.800;10.326;2023-04-21T06:22:47;13.60;56.50
32348;DHT22;18821;44.800;10.326;2023-04-21T06:25:13;13.70;54.70
32348;DHT22;18821;44.800;10.326;2023-04-21T06:27:39;13.70;51.00
32348;DHT22;18821;44.800;10.326;2023-04-21T06:30:05;13.70;52.60
32348;DHT22;18821;44.800;10.326;2023-04-21T06:32:32;13.70;53.50
32348;DHT22;18821;44.800;10.326;2023-04-21T06:34:57;13.80;55.10
32348;DHT22;18821;44.800;10.326;2023-04-21T06:37:23;13.80;51.50
32348;DHT22;18821;44.800;10.326;2023-04-21T06:39:49;13.80;50.40
32348;DHT22;18821;44.800;10.326;2023-04-21T06:42:15;13.70;50.50
32348;DHT22;18821;44.800;10.326;2023-04-21T06:44:41;13.80;53.10
32348;DHT22;18821;44.800;10.326;2023-04-21T06:47:07;13.80;51.30
32348;DHT22;18821;44.800;10.326;2023-04-21T06:49:34;13.80;55.70
32348;DHT22;18821;44.800;10.326;2023-04-21T06:52:02;14.00;53.70
32348;DHT22;18821;44.800;10.326;2023-04-21T06:54:28;14.10;49.20
32348;DHT22;18821;44.800;10.326;2023-04-21T06:56:54;14.10;44.90
32348;DHT22;18821;44.800;10.326;2023-04-21T06:59:21;14.20;41.60
32348;DHT22;18821;44.800;10.326;2023-04-21T07:01:47;14.10;42.20
32348;DHT22;18821;44.800;10.326;2023-04-21T07:04:19;14.10;46.80
32348;DHT22;18821;44.800;10.326;2023-04-21T07:06:46;14.10;47.10
32348;DHT22;18821;44.800;10.326;2023-04-21T07:09:12;14.20;47.90
32348;DHT22;18821;44.800;10.326;2023-04-21T07:11:38;14.30;44.50
32348;DHT22;18821;44.800;10.326;2023-04-21T07:14:03;14.40;44.20
32348;DHT22;18821;44.800;10.326;2023-04-21T07:16:31;14.60;40.40
32348;DHT22;18821;44.800;10.326;2023-04-21T07:18:57;14.60;31.90
32348;DHT22;18821;44.800;10.326;2023-04-21T07:21:23;14.70;32.60
32348;DHT22;18821;44.800;10.326;2023-04-21T07:23:49;14.80;28.80
32348;DHT22;18821;44.800;10.326;2023-04-21T07:26:15;15.00;29.70
32348;DHT22;18821;44.800;10.326;2023-04-21T07:28:43;15.10;23.70
32348;DHT22;18821;44.800;10.326;2023-04-21T07:31:09;15.30;22.20
32348;DHT22;18821;44.800;10.326;2023-04-21T07:33:35;15.40;18.90
32348;DHT22;18821;44.800;10.326;2023-04-21T07:36:00;15.50;15.00
32348;DHT22;18821;44.800;10.326;2023-04-21T07:38:26;15.50;12.60
32348;DHT22;18821;44.800;10.326;2023-04-21T07:40:52;15.60;4.70
32348;DHT22;18821;44.800;10.326;2023-04-21T07:43:18;15.70;1.40
32348;DHT22;18821;44.800;10.326;2023-04-21T07:45:44;15.70;2.10
32348;DHT22;18821;44.800;10.326;2023-04-21T07:48:11;15.90;1.00
32348;DHT22;18821;44.800;10.326;2023-04-21T07:50:36;15.80;1.00
32348;DHT22;18821;44.800;10.326;2023-04-21T07:53:02;15.90;1.00
32348;DHT22;18821;44.800;10.326;2023-04-21T07:55:29;15.70;1.00
32348;DHT22;18821;44.800;10.326;2023-04-21T07:57:56;15.50;10.90
32348;DHT22;18821;44.800;10.326;2023-04-21T08:00:21;15.50;2.50
32348;DHT22;18821;44.800;10.326;2023-04-21T08:02:47;15.50;7.30
32348;DHT22;18821;44.800;10.326;2023-04-21T08:05:13;15.60;3.60
32348;DHT22;18821;44.800;10.326;2023-04-21T08:07:39;15.50;6.10
32348;DHT22;18821;44.800;10.326;2023-04-21T08:10:06;15.60;4.90
32348;DHT22;18821;44.800;10.326;2023-04-21T08:12:32;15.70;1.50
32348;DHT22;18821;44.800;10.326;2023-04-21T08:14:59;15.80;1.00
32348;DHT22;18821;44.800;10.326;2023-04-21T08:17:30;15.80;1.00
32348;DHT22;18821;44.800;10.326;2023-04-21T08:19:56;15.70;1.00
32348;DHT22;18821;44.800;10.326;2023-04-21T08:22:22;15.70;1.00
32348;DHT22;18821;44.800;10.326;2023-04-21T08:24:48;15.50;1.00
32348;DHT22;18821;44.800;10.326;2023-04-21T08:27:14;15.20;22.70
32348;DHT22;18821;44.800;10.326;2023-04-21T08:29:40;15.40;12.30
32348;DHT22;18821;44.800;10.326;2023-04-21T08:32:06;15.50;10.70
32348;DHT22;18821;44.800;10.326;2023-04-21T08:34:33;15.70;6.10
32348;DHT22;18821;44.800;10.326;2023-04-21T08:36:59;15.80;3.00
32348;DHT22;18821;44.800;10.326;2023-04-21T08:39:25;15.90;1.00
32348;DHT22;18821;44.800;10.326;2023-04-21T08:41:51;16.20;1.00
32348;DHT22;18821;44.800;10.326;2023-04-21T08:44:18;16.40;1.00
32348;DHT22;18821;44.800;10.326;2023-04-21T08:46:47;16.50;1.00
32348;DHT22;18821;44.800;10.326;2023-04-21T08:49:17;16.60;1.00
32348;DHT22;18821;44.800;10.326;2023-04-21T08:51:44;16.50;1.00
32348;DHT22;18821;44.800;10.326;2023-04-21T08:54:10;16.40;1.00
32348;DHT22;18821;44.800;10.326;2023-04-21T08:56:36;16.50;1.00
32348;DHT22;18821;44.800;10.326;2023-04-21T08:59:03;16.60;1.00
32348;DHT22;18821;44.800;10.326;2023-04-21T09:01:29;16.80;1.00
32348;DHT22;18821;44.800;10.326;2023-04-21T09:04:17;16.70;1.00
32348;DHT22;18821;44.800;10.326;2023-04-21T09:06:43;16.80;1.00
32348;DHT22;18821;44.800;10.326;2023-04-21T09:09:10;16.80;1.00
32348;DHT22;18821;44.800;10.326;2023-04-21T09:11:36;16.80;1.00
32348;DHT22;18821;44.800;10.326;2023-04-21T09:14:02;16.80;1.00
32348;DHT22;18821;44.800;10.326;2023-04-21T09:16:30;16.80;1.00
32348;DHT22;18821;44.800;10.326;2023-04-21T09:18:59;16.80;1.00
32348;DHT22;18821;44.800;10.326;2023-04-21T09:21:29;16.80;1.00
32348;DHT22;18821;44.800;10.326;2023-04-21T09:23:56;16.90;1.00
32348;DHT22;18821;44.800;10.326;2023-04-21T09:26:22;17.00;1.00
32348;DHT22;18821;44.800;10.326;2023-04-21T09:28:50;17.20;1.00
32348;DHT22;18821;44.800;10.326;2023-04-21T09:31:22;17.40;1.00
32348;DHT22;18821;44.800;10.326;2023-04-21T09:33:55;17.40;1.00
32348;DHT22;18821;44.800;10.326;2023-04-21T09:36:26;17.40;1.00
32348;DHT22;18821;44.800;10.326;2023-04-21T09:41:19;17.40;1.00
32348;DHT22;18821;44.800;10.326;2023-04-21T09:43:45;17.40;1.00
32348;DHT22;18821;44.800;10.326;2023-04-21T09:46:12;17.60;1.00
32348;DHT22;18821;44.800;10.326;2023-04-21T09:48:43;17.70;1.00
32348;DHT22;18821;44.800;10.326;2023-04-21T09:51:14;17.40;1.00
32348;DHT22;18821;44.800;10.326;2023-04-21T09:53:42;17.40;1.00
32348;DHT22;18821;44.800;10.326;2023-04-21T09:56:13;17.70;1.00
32348;DHT22;18821;44.800;10.326;2023-04-21T09:59:00;18.00;1.00
32348;DHT22;18821;44.800;10.326;2023-04-21T10:01:28;18.00;1.00
32348;DHT22;18821;44.800;10.326;2023-04-21T10:03:55;18.50;1.00
32348;DHT22;18821;44.800;10.326;2023-04-21T10:06:22;18.30;1.00
32348;DHT22;18821;44.800;10.326;2023-04-21T10:08:49;18.70;1.00
32348;DHT22;18821;44.800;10.326;2023-04-21T10:11:15;18.90;1.00
32348;DHT22;18821;44.800;10.326;2023-04-21T10:13:43;19.00;1.00
32348;DHT22;18821;44.800;10.326;2023-04-21T10:16:11;18.80;1.00
32348;DHT22;18821;44.800;10.326;2023-04-21T10:18:41;18.50;1.00
32348;DHT22;18821;44.800;10.326;2023-04-21T10:21:09;18.40;1.00
32348;DHT22;18821;44.800;10.326;2023-04-21T10:23:42;18.20;1.00
32348;DHT22;18821;44.800;10.326;2023-04-21T10:26:25;18.20;1.00
32348;DHT22;18821;44.800;10.326;2023-04-21T10:36:50;18.40;1.00
32348;DHT22;18821;44.800;10.326;2023-04-21T10:41:57;19.20;1.00
32348;DHT22;18821;44.800;10.326;2023-04-21T10:44:23;19.40;99.90
32348;DHT22;18821;44.800;10.326;2023-04-21T10:46:51;19.40;99.90
32348;DHT22;18821;44.800;10.326;2023-04-21T10:49:28;19.10;99.90
32348;DHT22;18821;44.800;10.326;2023-04-21T10:54:42;19.10;99.90
32348;DHT22;18821;44.800;10.326;2023-04-21T10:57:12;19.50;99.90
32348;DHT22;18821;44.800;10.326;2023-04-21T10:59:39;19.70;99.90
32348;DHT22;18821;44.800;10.326;2023-04-21T11:02:06;19.80;99.90
32348;DHT22;18821;44.800;10.326;2023-04-21T11:04:32;19.60;99.90
32348;DHT22;18821;44.800;10.326;2023-04-21T11:07:13;19.50;99.90
32348;DHT22;18821;44.800;10.326;2023-04-21T11:09:40;19.40;99.90
32348;DHT22;18821;44.800;10.326;2023-04-21T11:12:08;19.80;99.90
32348;DHT22;18821;44.800;10.326;2023-04-21T11:14:40;20.10;99.90
32348;DHT22;18821;44.800;10.326;2023-04-21T11:17:11;20.10;99.90
32348;DHT22;18821;44.800;10.326;2023-04-21T11:19:38;19.90;99.90
32348;DHT22;18821;44.800;10.326;2023-04-21T11:22:04;19.70;99.90
32348;DHT22;18821;44.800;10.326;2023-04-21T11:24:31;19.40;99.90
32348;DHT22;18821;44.800;10.326;2023-04-21T11:26:57;19.30;99.90
32348;DHT22;18821;44.800;10.326;2023-04-21T11:29:25;19.30;99.90
32348;DHT22;18821;44.800;10.326;2023-04-21T11:31:53;19.50;99.90
32348;DHT22;18821;44.800;10.326;2023-04-21T11:34:22;19.60;99.90
32348;DHT22;18821;44.800;10.326;2023-04-21T11:36:49;19.50;99.90
32348;DHT22;18821;44.800;10.326;2023-04-21T11:39:16;19.60;99.90
32348;DHT22;18821;44.800;10.326;2023-04-21T11:41:48;19.50;99.90
32348;DHT22;18821;44.800;10.326;2023-04-21T11:44:36;19.40;99.90
32348;DHT22;18821;44.800;10.326;2023-04-21T11:47:15;19.40;99.90
32348;DHT22;18821;44.800;10.326;2023-04-21T11:49:47;19.50;99.90
32348;DHT22;18821;44.800;10.326;2023-04-21T11:52:27;19.60;99.90
32348;DHT22;18821;44.800;10.326;2023-04-21T11:54:59;19.70;92.00
32348;DHT22;18821;44.800;10.326;2023-04-21T11:57:27;19.60;99.90
32348;DHT22;18821;44.800;10.326;2023-04-21T11:59:53;19.40;99.90
32348;DHT22;18821;44.800;10.326;2023-04-21T12:02:30;19.30;99.90
32348;DHT22;18821;44.800;10.326;2023-04-21T12:05:14;19.10;99.90
32348;DHT22;18821;44.800;10.326;2023-04-21T12:07:43;19.10;99.90
32348;DHT22;18821;44.800;10.326;2023-04-21T12:10:13;19.30;99.90
32348;DHT22;18821;44.800;10.326;2023-04-21T12:12:40;19.40;99.90
32348;DHT22;18821;44.800;10.326;2023-04-21T12:15:08;19.70;15.00
32348;DHT22;18821;44.800;10.326;2023-04-21T12:17:43;19.90;1.00
32348;DHT22;18821;44.800;10.326;2023-04-21T12:20:10;20.10;99.90
32348;DHT22;18821;44.800;10.326;2023-04-21T12:22:36;20.10;99.90
32348;DHT22;18821;44.800;10.326;2023-04-21T12:25:03;20.30;1.00
32348;DHT22;18821;44.800;10.326;2023-04-21T12:27:29;20.40;99.90
32348;DHT22;18821;44.800;10.326;2023-04-21T12:29:55;20.40;99.90
32348;DHT22;18821;44.800;10.326;2023-04-21T12:32:22;20.30;1.00
32348;DHT22;18821;44.800;10.326;2023-04-21T12:34:49;20.30;1.00
32348;DHT22;18821;44.800;10.326;2023-04-21T12:37:15;20.40;99.90
32348;DHT22;18821;44.800;10.326;2023-04-21T12:39:41;20.40;1.00
32348;DHT22;18821;44.800;10.326;2023-04-21T12:42:07;20.30;1.00
32348;DHT22;18821;44.800;10.326;2023-04-21T12:44:34;20.10;1.00
32348;DHT22;18821;44.800;10.326;2023-04-21T12:47:00;20.10;99.90
32348;DHT22;18821;44.800;10.326;2023-04-21T12:49:26;19.90;99.90
32348;DHT22;18821;44.800;10.326;2023-04-21T12:51:52;19.90;99.90
32348;DHT22;18821;44.800;10.326;2023-04-21T12:54:18;20.10;99.90
32348;DHT22;18821;44.800;10.326;2023-04-21T12:56:43;20.20;1.00
32348;DHT22;18821;44.800;10.326;2023-04-21T12:59:10;20.20;99.90
32348;DHT22;18821;44.800;10.326;2023-04-21T13:01:37;20.30;1.00
32348;DHT22;18821;44.800;10.326;2023-04-21T13:04:03;20.60;99.90
32348;DHT22;18821;44.800;10.326;2023-04-21T13:06:29;20.40;99.90
32348;DHT22;18821;44.800;10.326;2023-04-21T13:08:57;20.70;99.90
32348;DHT22;18821;44.800;10.326;2023-04-21T13:11:23;20.90;1.00
32348;DHT22;18821;44.800;10.326;2023-04-21T13:13:49;20.80;1.00
32348;DHT22;18821;44.800;10.326;2023-04-21T13:16:16;20.60;1.00
32348;DHT22;18821;44.800;10.326;2023-04-21T13:18:43;20.30;98.10
32348;DHT22;18821;44.800;10.326;2023-04-21T13:21:09;20.30;99.90
32348;DHT22;18821;44.800;10.326;2023-04-21T13:23:35;20.10;99.90
32348;DHT22;18821;44.800;10.326;2023-04-21T13:26:01;20.20;1.00
32348;DHT22;18821;44.800;10.326;2023-04-21T13:28:27;20.00;99.90
32348;DHT22;18821;44.800;10.326;2023-04-21T13:30:53;20.10;1.00
32348;DHT22;18821;44.800;10.326;2023-04-21T13:33:19;20.30;99.90
32348;DHT22;18821;44.800;10.326;2023-04-21T13:35:45;20.60;1.00
32348;DHT22;18821;44.800;10.326;2023-04-21T13:38:11;21.10;99.90
32348;DHT22;18821;44.800;10.326;2023-04-21T13:40:37;21.50;1.00
32348;DHT22;18821;44.800;10.326;2023-04-21T13:43:04;21.20;99.90
32348;DHT22;18821;44.800;10.326;2023-04-21T13:45:30;21.20;99.90
32348;DHT22;18821;44.800;10.326;2023-04-21T13:47:56;21.30;1.00
32348;DHT22;18821;44.800;10.326;2023-04-21T13:50:23;20.80;99.90
32348;DHT22;18821;44.800;10.326;2023-04-21T13:52:49;21.10;99.90
32348;DHT22;18821;44.800;10.326;2023-04-21T13:55:15;21.30;99.90
32348;DHT22;18821;44.800;10.326;2023-04-21T13:57:41;21.40;24.10
32348;DHT22;18821;44.800;10.326;2023-04-21T14:00:07;21.00;22.10
32348;DHT22;18821;44.800;10.326;2023-04-21T14:02:35;21.10;1.00
32348;DHT22;18821;44.800;10.326;2023-04-21T14:05:01;21.10;1.00
32348;DHT22;18821;44.800;10.326;2023-04-21T14:07:28;20.90;1.00
32348;DHT22;18821;44.800;10.326;2023-04-21T14:09:54;20.70;1.00
32348;DHT22;18821;44.800;10.326;2023-04-21T14:12:20;20.70;1.00
32348;DHT22;18821;44.800;10.326;2023-04-21T14:14:46;20.90;1.00
32348;DHT22;18821;44.800;10.326;2023-04-21T14:17:12;21.10;99.90
32348;DHT22;18821;44.800;10.326;2023-04-21T14:19:40;21.40;99.90
32348;DHT22;18821;44.800;10.326;2023-04-21T14:22:06;21.40;1.00
32348;DHT22;18821;44.800;10.326;2023-04-21T14:24:32;21.20;99.90
32348;DHT22;18821;44.800;10.326;2023-04-21T14:26:58;21.30;99.90
32348;DHT22;18821;44.800;10.326;2023-04-21T14:29:24;21.10;99.90
32348;DHT22;18821;44.800;10.326;2023-04-21T14:31:50;21.10;86.00
32348;DHT22;18821;44.800;10.326;2023-04-21T14:34:18;21.30;99.90
32348;DHT22;18821;44.800;10.326;2023-04-21T14:36:44;21.40;86.80
32348;DHT22;18821;44.800;10.326;2023-04-21T14:39:14;21.40;1.00
32348;DHT22;18821;44.800;10.326;2023-04-21T14:41:40;21.40;1.00
32348;DHT22;18821;44.800;10.326;2023-04-21T14:44:06;21.30;1.00
32348;DHT22;18821;44.800;10.326;2023-04-21T14:46:32;21.10;99.90
32348;DHT22;18821;44.800;10.326;2023-04-21T14:48:58;21.00;1.00
32348;DHT22;18821;44.800;10.326;2023-04-21T14:51:24;20.80;99.90
32348;DHT22;18821;44.800;10.326;2023-04-21T14:53:49;20.70;1.00
32348;DHT22;18821;44.800;10.326;2023-04-21T14:56:16;20.70;1.00
32348;DHT22;18821;44.800;10.326;2023-04-21T14:58:42;20.80;99.90
32348;DHT22;18821;44.800;10.326;2023-04-21T15:01:08;21.00;1.00
32348;DHT22;18821;44.800;10.326;2023-04-21T15:03:35;21.20;99.90
32348;DHT22;18821;44.800;10.326;2023-04-21T15:06:02;21.20;1.00
32348;DHT22;18821;44.800;10.326;2023-04-21T15:08:29;21.30;1.00
32348;DHT22;18821;44.800;10.326;2023-04-21T15:10:55;21.20;99.90
32348;DHT22;18821;44.800;10.326;2023-04-21T15:13:21;21.10;1.00
32348;DHT22;18821;44.800;10.326;2023-04-21T15:15:48;20.80;99.90
32348;DHT22;18821;44.800;10.326;2023-04-21T15:18:16;20.30;1.00
32348;DHT22;18821;44.800;10.326;2023-04-21T15:20:42;20.10;99.90
32348;DHT22;18821;44.800;10.326;2023-04-21T15:23:12;20.10;99.90
32348;DHT22;18821;44.800;10.326;2023-04-21T15:25:39;20.10;99.90
32348;DHT22;18821;44.800;10.326;2023-04-21T15:28:05;20.00;99.90
32348;DHT22;18821;44.800;10.326;2023-04-21T15:30:34;20.00;1.00
32348;DHT22;18821;44.800;10.326;2023-04-21T15:33:00;19.90;1.00
32348;DHT22;18821;44.800;10.326;2023-04-21T15:35:26;19.90;1.00